createdAt,value
2023-02-24T00:02:01.660Z,7.80
2023-02-24T00:04:34.214Z,7.80
2023-02-24T00:07:02.471Z,7.80
2023-02-24T00:09:31.063Z,7.80
2023-02-24T00:12:01.066Z,7.80
2023-02-24T00:16:59.129Z,7.70
2023-02-24T00:19:29.028Z,7.70
2023-02-24T00:21:55.786Z,7.60
2023-02-24T00:24:23.067Z,7.60
2023-02-24T00:27:00.957Z,7.60
2023-02-24T00:29:29.573Z,7.50
2023-02-24T00:32:07.132Z,7.50
2023-02-24T00:34:39.869Z,7.50
2023-02-24T00:37:07.004Z,7.50
2023-02-24T00:39:35.666Z,7.40
2023-02-24T00:42:04.922Z,7.40
2023-02-24T00:44:37.146Z,7.30
2023-02-24T00:47:06.677Z,7.20
2023-02-24T00:49:42.153Z,7.10
2023-02-24T00:52:14.992Z,7.10
2023-02-24T00:54:46.191Z,7.20
2023-02-24T00:57:14.282Z,7.30
2023-02-24T00:59:41.067Z,7.30
2023-02-24T01:02:08.326Z,7.40
2023-02-24T01:04:37.490Z,7.40
2023-02-24T01:07:10.899Z,7.40
2023-02-24T01:09:39.428Z,7.40
2023-02-24T01:12:38.073Z,7.40
2023-02-24T01:15:09.251Z,7.40
2023-02-24T01:17:40.407Z,7.40
2023-02-24T01:20:17.088Z,7.40
2023-02-24T01:22:53.266Z,7.40
2023-02-24T01:25:20.589Z,7.40
2023-02-24T01:27:47.661Z,7.40
2023-02-24T01:30:16.505Z,7.40
2023-02-24T01:32:44.577Z,7.40
2023-02-24T01:35:12.098Z,7.40
2023-02-24T01:37:39.327Z,7.40
2023-02-24T01:40:11.919Z,7.40
2023-02-24T01:42:41.795Z,7.40
2023-02-24T01:45:14.832Z,7.40
2023-02-24T01:47:42.544Z,7.40
2023-02-24T01:50:13.786Z,7.40
2023-02-24T01:52:42.524Z,7.40
2023-02-24T01:55:38.966Z,7.30
2023-02-24T01:58:13.955Z,7.40
2023-02-24T02:00:45.634Z,7.30
2023-02-24T02:03:29.663Z,7.30
2023-02-24T02:06:01.668Z,7.30
2023-02-24T02:08:29.382Z,7.30
2023-02-24T02:11:02.876Z,7.20
2023-02-24T02:13:31.239Z,7.10
2023-02-24T02:16:25.006Z,7.00
2023-02-24T02:18:56.140Z,7.00
2023-02-24T02:21:44.612Z,6.90
2023-02-24T02:24:17.182Z,6.90
2023-02-24T02:27:11.567Z,6.80
2023-02-24T02:30:14.095Z,6.80
2023-02-24T02:33:21.887Z,6.70
2023-02-24T02:41:45.836Z,6.70
2023-02-24T02:44:34.204Z,6.90
2023-02-24T02:47:26.758Z,6.90
2023-02-24T02:50:01.211Z,6.90
2023-02-24T02:53:05.819Z,6.90
2023-02-24T02:55:36.267Z,6.90
2023-02-24T02:58:07.836Z,6.90
2023-02-24T03:00:42.074Z,6.90
2023-02-24T03:03:16.255Z,6.90
2023-02-24T03:05:51.791Z,6.90
2023-02-24T03:08:23.865Z,6.90
2023-02-24T03:10:53.525Z,6.90
2023-02-24T03:13:25.573Z,6.80
2023-02-24T03:15:54.795Z,6.70
2023-02-24T03:18:31.935Z,6.70
2023-02-24T03:21:16.833Z,6.70
2023-02-24T03:23:50.770Z,6.70
2023-02-24T03:26:37.198Z,6.70
2023-02-24T03:29:19.249Z,6.60
2023-02-24T03:32:05.258Z,6.60
2023-02-24T03:54:53.920Z,6.70
2023-02-24T03:57:34.743Z,6.40
2023-02-24T07:21:46.541Z,6.00
2023-02-24T07:24:20.217Z,6.70
2023-02-24T07:26:51.667Z,6.70
2023-02-24T07:29:18.528Z,6.70
2023-02-24T07:31:45.449Z,6.80
2023-02-24T08:12:21.500Z,6.70
2023-02-24T08:14:53.360Z,7.90
2023-02-24T08:17:24.644Z,8.00
2023-02-24T08:20:28.687Z,8.00
2023-02-24T08:22:58.593Z,8.00
2023-02-24T08:25:35.904Z,8.00
2023-02-24T08:28:08.466Z,8.10
2023-02-24T08:30:45.678Z,8.10
2023-02-24T08:33:19.590Z,8.20
2023-02-24T08:36:01.283Z,8.30
2023-02-24T08:38:39.723Z,8.30
2023-02-24T08:43:39.491Z,8.40
2023-02-24T08:46:25.467Z,8.50
2023-02-24T08:48:55.788Z,8.60
2023-02-24T08:51:28.641Z,8.80
2023-02-24T08:53:58.348Z,8.70
2023-02-24T08:56:27.785Z,8.70
2023-02-24T08:59:05.566Z,8.70
2023-02-24T09:01:39.183Z,8.70
2023-02-24T09:04:07.448Z,8.70
2023-02-24T09:06:39.497Z,8.80
2023-02-24T09:09:19.303Z,8.80
2023-02-24T09:43:30.198Z,9.00
2023-02-24T09:46:14.886Z,10.50
2023-02-24T09:49:17.439Z,10.60
2023-02-24T09:51:45.344Z,10.70
2023-02-24T09:54:18.281Z,10.90
2023-02-24T09:57:08.496Z,11.00
2023-02-24T10:06:20.895Z,11.20
2023-02-24T10:11:34.910Z,11.50
2023-02-24T10:14:05.416Z,11.40
2023-02-24T10:16:44.703Z,11.30
2023-02-24T10:19:30.528Z,11.20
2023-02-24T10:22:05.667Z,11.00
2023-02-24T10:24:47.202Z,11.10
2023-02-24T10:27:30.063Z,11.40
2023-02-24T10:30:27.984Z,11.70
2023-02-24T10:32:59.269Z,11.90
2023-02-24T10:35:33.653Z,11.90
2023-02-24T10:38:06.256Z,11.70
2023-02-24T10:40:56.853Z,11.70
2023-02-24T10:43:33.467Z,11.70
2023-02-24T10:46:17.517Z,11.60
2023-02-24T10:51:22.152Z,11.80
2023-02-24T10:54:09.872Z,12.50
2023-02-24T10:56:55.154Z,12.80
2023-02-24T10:59:24.716Z,13.20
2023-02-24T11:02:06.849Z,13.20
2023-02-24T11:04:54.095Z,13.20
2023-02-24T11:07:46.171Z,13.00
2023-02-24T11:10:32.489Z,12.90
2023-02-24T11:13:20.987Z,13.10
2023-02-24T11:16:10.108Z,13.10
2023-02-24T11:18:40.273Z,13.20
2023-02-24T11:21:10.912Z,13.20
2023-02-24T11:23:50.027Z,13.80
2023-02-24T11:26:18.632Z,14.10
2023-02-24T11:29:23.165Z,14.40
2023-02-24T11:32:17.305Z,15.00
2023-02-24T11:34:49.714Z,14.70
2023-02-24T11:37:41.867Z,14.20
2023-02-24T11:40:24.418Z,13.40
2023-02-24T11:43:26.351Z,12.90
2023-02-24T11:46:19.695Z,12.90
2023-02-24T11:48:58.350Z,13.10
2023-02-24T11:51:29.477Z,13.00
2023-02-24T11:54:13.176Z,13.00
2023-02-24T11:56:58.263Z,13.40
2023-02-24T11:59:44.373Z,13.90
2023-02-24T12:02:34.012Z,14.70
2023-02-24T12:05:15.734Z,14.70
2023-02-24T12:08:05.659Z,14.50
2023-02-24T12:10:36.015Z,14.10
2023-02-24T12:13:13.997Z,14.00
2023-02-24T12:16:03.105Z,13.80
2023-02-24T12:18:34.327Z,13.60
2023-02-24T12:21:05.684Z,13.40
2023-02-24T12:23:45.515Z,13.10
2023-02-24T12:26:24.519Z,12.90
2023-02-24T12:29:18.650Z,12.80
2023-02-24T12:31:53.389Z,12.60
2023-02-24T12:34:50.029Z,12.70
2023-02-24T12:37:28.893Z,12.80
2023-02-24T12:40:01.854Z,12.80
2023-02-24T12:42:52.415Z,12.70
2023-02-24T12:45:22.995Z,12.70
2023-02-24T12:48:04.995Z,12.60
2023-02-24T12:51:06.326Z,12.40
2023-02-24T12:53:48.283Z,12.20
2023-02-24T12:56:25.234Z,12.30
2023-02-24T12:58:59.828Z,12.30
2023-02-24T13:02:11.879Z,12.10
2023-02-24T13:05:10.188Z,12.00
2023-02-24T13:07:40.129Z,11.90
2023-02-24T13:10:26.808Z,11.90
2023-02-24T13:13:00.299Z,11.90
2023-02-24T13:15:31.223Z,11.90
2023-02-24T13:17:58.493Z,11.80
2023-02-24T13:20:29.875Z,11.60
2023-02-24T13:22:58.916Z,11.50
2023-02-24T13:25:36.995Z,11.20
2023-02-24T13:28:06.762Z,11.00
2023-02-24T13:30:42.519Z,11.00
2023-02-24T13:33:18.310Z,11.00
2023-02-24T13:35:46.955Z,11.10
2023-02-24T13:38:31.865Z,11.10
2023-02-24T13:41:29.336Z,11.10
2023-02-24T13:44:02.679Z,11.20
2023-02-24T13:46:49.359Z,11.30
2023-02-24T13:51:59.317Z,11.30
2023-02-24T13:54:31.146Z,11.10
2023-02-24T13:57:25.531Z,11.10
2023-02-24T14:00:10.404Z,11.20
2023-02-24T14:02:44.110Z,11.20
2023-02-24T14:05:33.105Z,11.20
2023-02-24T14:08:01.034Z,11.10
2023-02-24T14:10:30.744Z,11.00
2023-02-24T14:13:16.894Z,11.00
2023-02-24T14:15:45.891Z,10.90
2023-02-24T14:26:12.784Z,10.80
2023-02-24T14:28:44.200Z,10.40
2023-02-24T14:39:14.673Z,10.30
2023-02-24T14:41:43.572Z,10.10
2023-02-24T14:44:26.413Z,10.00
2023-02-24T14:46:55.396Z,9.90
2023-02-24T14:49:30.974Z,9.90
2023-02-24T14:52:09.526Z,9.90
2023-02-24T14:54:45.205Z,10.00
2023-02-24T14:57:15.715Z,10.00
2023-02-24T14:59:47.334Z,10.10
2023-02-24T15:02:21.426Z,10.10
2023-02-24T15:04:48.484Z,10.20
2023-02-24T15:07:24.636Z,10.20
2023-02-24T15:09:53.801Z,10.20
2023-02-24T15:12:33.511Z,10.20
2023-02-24T15:15:05.790Z,10.20
2023-02-24T15:17:33.342Z,10.20
2023-02-24T15:20:00.079Z,10.20
2023-02-24T15:22:30.004Z,10.30
2023-02-24T15:25:15.739Z,10.30
2023-02-24T15:27:58.450Z,10.40
2023-02-24T15:30:26.879Z,10.20
2023-02-24T15:33:08.250Z,10.00
2023-02-24T15:35:38.314Z,9.90
2023-02-24T15:43:32.854Z,9.70
2023-02-24T15:45:59.598Z,9.40
2023-02-24T15:48:28.769Z,9.40
2023-02-24T15:51:04.569Z,9.30
2023-02-24T15:53:31.301Z,9.30
2023-02-24T15:56:00.748Z,9.10
2023-02-24T15:58:27.475Z,9.10
2023-02-24T16:00:54.338Z,9.00
2023-02-24T16:03:21.056Z,8.90
2023-02-24T16:05:50.865Z,8.90
2023-02-24T16:08:19.475Z,8.80
2023-02-24T16:10:46.875Z,8.80
2023-02-24T16:13:21.337Z,8.80
2023-02-24T16:15:48.447Z,8.80
2023-02-24T16:18:25.198Z,8.70
2023-02-24T16:20:56.499Z,8.70
2023-02-24T16:23:25.541Z,8.60
2023-02-24T16:25:57.698Z,8.60
2023-02-24T16:28:24.838Z,8.60
2023-02-24T16:30:55.434Z,8.50
2023-02-24T16:48:24.862Z,8.50
2023-02-24T16:50:52.059Z,8.20
2023-02-24T16:58:15.301Z,8.00
2023-02-24T17:20:50.167Z,6.70
2023-02-24T17:25:44.875Z,5.10
2023-02-24T17:28:11.742Z,5.10
2023-02-24T17:30:39.534Z,5.00
2023-02-24T17:33:07.375Z,5.00
2023-02-24T17:35:34.100Z,4.90
2023-02-24T17:38:03.528Z,4.80
2023-02-24T17:40:30.368Z,4.80
2023-02-24T17:42:57.342Z,4.70
2023-02-24T17:45:24.689Z,4.70
2023-02-24T17:47:53.670Z,4.60
2023-02-24T17:50:20.405Z,4.60
2023-02-24T17:52:47.295Z,4.60
2023-02-24T17:55:13.965Z,4.60
2023-02-24T17:57:43.696Z,4.60
2023-02-24T18:00:15.205Z,4.60
2023-02-24T18:02:42.398Z,4.60
2023-02-24T18:05:10.223Z,4.50
2023-02-24T18:07:37.727Z,4.50
2023-02-24T18:10:05.237Z,4.50
2023-02-24T18:12:32.077Z,4.40
2023-02-24T18:15:07.722Z,4.40
2023-02-24T18:17:38.729Z,4.40
2023-02-24T18:20:07.697Z,4.30
2023-02-24T18:22:35.106Z,4.30
2023-02-24T18:25:01.999Z,4.30
2023-02-24T18:27:28.773Z,4.20
2023-02-24T18:30:00.836Z,4.20
2023-02-24T18:32:28.162Z,4.20
2023-02-24T18:34:54.958Z,4.20
2023-02-24T18:37:22.191Z,4.20
2023-02-24T18:39:49.009Z,4.10
2023-02-24T18:42:15.795Z,4.10
2023-02-24T18:44:42.561Z,4.10
2023-02-24T18:47:09.832Z,4.00
2023-02-24T18:49:37.292Z,4.00
2023-02-24T18:52:05.528Z,4.00
2023-02-24T18:54:34.136Z,4.00
2023-02-24T18:57:01.056Z,3.90
2023-02-24T18:59:27.861Z,3.90
2023-02-24T19:01:56.707Z,4.00
2023-02-24T19:04:24.159Z,4.00
2023-02-24T19:06:50.966Z,4.10
2023-02-24T19:09:21.566Z,4.10
2023-02-24T19:11:49.708Z,4.20
2023-02-24T19:14:16.691Z,4.30
2023-02-24T19:16:43.682Z,4.30
2023-02-24T19:19:17.038Z,4.40
2023-02-24T19:21:45.501Z,4.50
2023-02-24T19:24:14.080Z,4.50
2023-02-24T19:26:45.720Z,4.50
2023-02-24T19:29:12.442Z,4.40
2023-02-24T19:31:39.938Z,4.40
2023-02-24T19:34:13.124Z,4.40
2023-02-24T19:36:41.738Z,4.40
2023-02-24T19:39:14.720Z,4.50
2023-02-24T19:41:43.332Z,4.50
2023-02-24T19:44:10.818Z,4.60
2023-02-24T19:46:38.941Z,4.50
2023-02-24T19:49:06.387Z,4.50
2023-02-24T19:51:33.182Z,4.40
2023-02-24T19:54:03.318Z,4.40
2023-02-24T19:56:31.483Z,4.30
2023-02-24T19:59:00.270Z,4.20
2023-02-24T20:01:28.939Z,4.20
2023-02-24T20:03:59.009Z,4.10
2023-02-24T20:06:29.236Z,4.10
2023-02-24T20:08:57.768Z,4.10
2023-02-24T20:11:24.978Z,4.10
2023-02-24T20:13:52.978Z,4.10
2023-02-24T20:16:22.528Z,4.10
2023-02-24T20:18:49.360Z,4.10
2023-02-24T20:21:16.126Z,4.20
2023-02-24T20:23:43.407Z,4.20
2023-02-24T20:26:14.263Z,4.20
2023-02-24T20:28:40.956Z,4.20
2023-02-24T20:31:12.997Z,4.30
2023-02-24T20:33:40.835Z,4.40
2023-02-24T20:36:13.082Z,4.40
2023-02-24T20:38:40.250Z,4.40
2023-02-24T20:41:07.293Z,4.40
2023-02-24T20:43:34.344Z,4.50
2023-02-24T20:46:14.118Z,4.50
2023-02-24T20:48:43.797Z,4.60
2023-02-24T20:51:12.301Z,4.70
2023-02-24T20:53:54.757Z,4.70
2023-02-24T20:56:23.985Z,4.80
2023-02-24T20:58:53.093Z,4.70
2023-02-24T21:01:21.144Z,4.70
2023-02-24T21:03:51.014Z,4.60
2023-02-24T21:06:18.638Z,4.50
2023-02-24T21:08:45.940Z,4.30
2023-02-24T21:11:13.934Z,4.10
2023-02-24T21:13:46.218Z,4.00
2023-02-24T21:16:15.442Z,3.90
2023-02-24T21:18:44.393Z,4.00
2023-02-24T21:21:12.472Z,4.20
2023-02-24T21:23:39.778Z,4.30
2023-02-24T21:26:07.212Z,4.40
2023-02-24T21:28:34.279Z,4.40
2023-02-24T21:31:02.006Z,4.30
2023-02-24T21:33:28.767Z,4.30
2023-02-24T21:36:15.676Z,4.20
2023-02-24T21:38:49.824Z,4.20
2023-02-24T21:41:19.396Z,4.20
2023-02-24T21:43:46.790Z,4.20
2023-02-24T21:46:15.872Z,4.30
2023-02-24T21:48:43.083Z,4.50
2023-02-24T21:51:13.891Z,4.50
2023-02-24T21:53:43.492Z,4.70
2023-02-24T21:56:18.674Z,4.70
2023-02-24T21:58:51.641Z,4.70
2023-02-24T22:01:25.383Z,4.60
2023-02-24T22:03:57.694Z,4.50
2023-02-24T22:06:26.233Z,4.50
2023-02-24T22:08:54.671Z,4.40
2023-02-24T22:11:24.622Z,4.30
2023-02-24T22:13:56.497Z,4.30
2023-02-24T22:16:25.034Z,4.40
2023-02-24T22:18:53.237Z,4.50
2023-02-24T22:21:22.396Z,4.70
2023-02-24T22:23:51.618Z,4.70
2023-02-24T22:26:19.931Z,4.80
2023-02-24T22:28:47.943Z,4.80
2023-02-24T22:31:16.976Z,4.80
2023-02-24T22:33:44.650Z,4.90
2023-02-24T22:36:16.935Z,4.80
2023-02-24T22:38:45.616Z,4.80
2023-02-24T22:41:18.019Z,4.80
2023-02-24T22:43:45.152Z,4.70
2023-02-24T22:46:15.251Z,4.70
2023-02-24T22:48:43.406Z,4.50
2023-02-24T22:51:11.862Z,4.40
2023-02-24T22:53:40.863Z,4.30
2023-02-24T22:56:08.579Z,4.20
2023-02-24T22:58:35.312Z,4.20
2023-02-24T23:01:02.394Z,4.00
2023-02-24T23:03:33.455Z,3.90
2023-02-24T23:06:05.266Z,3.80
2023-02-24T23:08:34.121Z,3.70
2023-02-24T23:11:12.197Z,3.70
2023-02-24T23:13:40.106Z,3.70
2023-02-24T23:16:09.575Z,3.70
2023-02-24T23:18:36.972Z,3.70
2023-02-24T23:21:08.066Z,3.70
2023-02-24T23:23:35.773Z,3.80
2023-02-24T23:26:08.558Z,3.80
2023-02-24T23:28:35.231Z,3.90
2023-02-24T23:31:03.166Z,3.90
2023-02-24T23:33:30.056Z,4.00
2023-02-24T23:36:01.524Z,4.00
2023-02-24T23:38:28.199Z,3.90
2023-02-24T23:40:54.839Z,3.90
2023-02-24T23:43:23.827Z,3.80
2023-02-24T23:45:50.517Z,3.70
2023-02-24T23:48:17.484Z,3.60
2023-02-24T23:50:47.024Z,3.50
2023-02-24T23:53:13.707Z,3.40
2023-02-24T23:55:40.994Z,3.40
2023-02-24T23:58:10.290Z,3.40
